createdAt,value
2022-12-08T00:00:57.019Z,26.70
2022-12-08T00:03:24.180Z,27.50
2022-12-08T00:05:51.333Z,25.77
2022-12-08T00:08:25.026Z,26.13
2022-12-08T00:10:52.660Z,27.42
2022-12-08T00:13:25.912Z,25.50
2022-12-08T00:15:56.378Z,26.23
2022-12-08T00:18:29.864Z,25.02
2022-12-08T00:20:57.993Z,25.00
2022-12-08T00:26:55.146Z,26.10
2022-12-08T00:29:22.222Z,26.48
2022-12-08T00:32:46.697Z,25.70
2022-12-08T00:35:23.346Z,23.10
2022-12-08T00:38:24.442Z,23.98
2022-12-08T00:41:03.976Z,24.35
2022-12-08T00:43:33.206Z,26.27
2022-12-08T00:46:06.709Z,25.98
2022-12-08T00:48:47.142Z,24.67
2022-12-08T01:05:07.466Z,29.45
2022-12-08T01:07:19.134Z,27.20
2022-12-08T01:09:56.207Z,26.77
2022-12-08T01:12:30.249Z,24.77
2022-12-08T01:15:04.355Z,25.52
2022-12-08T01:17:36.881Z,25.05
2022-12-08T01:20:12.121Z,24.35
2022-12-08T01:22:39.160Z,24.67
2022-12-08T01:25:12.919Z,23.90
2022-12-08T01:27:45.970Z,24.55
2022-12-08T01:30:19.941Z,23.23
2022-12-08T01:32:46.942Z,23.67
2022-12-08T01:35:13.943Z,22.35
2022-12-08T01:37:47.992Z,23.10
2022-12-08T01:40:15.075Z,23.05
2022-12-08T01:42:48.894Z,21.88
2022-12-08T01:45:24.808Z,19.70
2022-12-08T01:48:00.957Z,19.00
2022-12-08T01:50:28.137Z,20.55
2022-12-08T01:53:15.018Z,20.40
2022-12-08T01:55:55.216Z,20.58
2022-12-08T01:58:35.983Z,19.20
2022-12-08T02:01:10.179Z,20.10
2022-12-08T02:04:05.965Z,19.40
2022-12-08T02:06:38.918Z,18.52
2022-12-08T02:09:12.898Z,17.80
2022-12-08T02:11:39.919Z,18.20
2022-12-08T02:14:07.630Z,18.38
2022-12-08T02:17:11.011Z,19.27
2022-12-08T02:20:03.113Z,20.23
2022-12-08T02:23:06.639Z,21.75
2022-12-08T02:26:19.995Z,18.45
2022-12-08T02:29:23.983Z,21.10
2022-12-08T02:32:52.013Z,21.08
2022-12-08T02:35:39.813Z,20.05
2022-12-08T02:38:36.037Z,21.63
2022-12-08T02:41:43.972Z,21.17
2022-12-08T02:44:35.594Z,19.73
2022-12-08T02:47:17.964Z,21.58
2022-12-08T02:49:45.238Z,22.90
2022-12-08T02:52:18.897Z,22.65
2022-12-08T02:54:58.164Z,23.08
2022-12-08T02:57:41.054Z,22.42
2022-12-08T03:00:18.908Z,22.13
2022-12-08T03:03:04.123Z,22.63
2022-12-08T03:06:23.603Z,22.35
2022-12-08T03:09:20.981Z,20.88
2022-12-08T03:12:14.957Z,20.73
2022-12-08T03:14:52.000Z,21.38
2022-12-08T03:17:20.415Z,22.13
2022-12-08T03:19:53.925Z,20.33
2022-12-08T03:22:23.815Z,22.05
2022-12-08T03:24:57.990Z,21.20
2022-12-08T03:27:27.270Z,21.15
2022-12-08T03:30:03.227Z,21.27
2022-12-08T03:32:51.403Z,22.30
2022-12-08T03:35:45.926Z,20.85
2022-12-08T03:38:15.164Z,21.25
2022-12-08T03:40:49.028Z,20.65
2022-12-08T03:43:22.928Z,22.23
2022-12-08T03:45:49.895Z,21.77
2022-12-08T03:48:16.897Z,20.90
2022-12-08T03:50:49.998Z,21.27
2022-12-08T03:53:23.920Z,21.90
2022-12-08T03:55:56.947Z,20.73
2022-12-08T03:58:23.939Z,20.45
2022-12-08T04:00:57.995Z,20.17
2022-12-08T04:03:25.075Z,20.13
2022-12-08T04:05:52.177Z,20.92
2022-12-08T04:08:26.123Z,20.58
2022-12-08T04:10:53.285Z,20.75
2022-12-08T04:13:27.038Z,19.35
2022-12-08T04:15:54.173Z,18.90
2022-12-08T04:18:28.054Z,19.45
2022-12-08T04:20:55.100Z,20.35
2022-12-08T04:23:29.028Z,19.50
2022-12-08T04:25:56.078Z,19.30
2022-12-08T04:28:23.234Z,19.52
2022-12-08T04:31:03.011Z,19.52
2022-12-08T04:33:30.064Z,20.75
2022-12-08T04:36:03.970Z,19.70
2022-12-08T04:38:31.122Z,20.10
2022-12-08T04:41:05.031Z,19.73
2022-12-08T04:43:38.980Z,19.15
2022-12-08T04:46:09.417Z,20.10
2022-12-08T04:48:46.073Z,18.40
2022-12-08T04:51:20.220Z,18.75
2022-12-08T04:53:54.009Z,18.60
2022-12-08T04:56:21.039Z,18.52
2022-12-08T04:58:54.965Z,18.92
2022-12-08T05:01:22.012Z,18.30
2022-12-08T05:03:56.109Z,18.45
2022-12-08T05:06:23.180Z,18.15
2022-12-08T05:08:57.036Z,18.45
2022-12-08T05:11:24.144Z,17.27
2022-12-08T05:13:58.017Z,18.58
2022-12-08T05:16:25.147Z,18.08
2022-12-08T05:18:59.006Z,18.58
2022-12-08T05:21:26.027Z,18.20
2022-12-08T05:24:00.069Z,18.20
2022-12-08T05:26:27.145Z,18.40
2022-12-08T05:29:01.006Z,17.30
2022-12-08T05:31:28.181Z,17.90
2022-12-08T05:33:58.437Z,17.88
2022-12-08T05:36:36.042Z,18.63
2022-12-08T05:39:10.027Z,16.67
2022-12-08T05:41:37.088Z,16.98
2022-12-08T05:44:04.179Z,16.67
2022-12-08T05:46:38.067Z,17.40
2022-12-08T05:49:05.160Z,16.40
2022-12-08T05:51:32.247Z,16.83
2022-12-08T05:54:10.896Z,18.42
2022-12-08T05:56:37.927Z,18.90
2022-12-08T05:59:15.050Z,16.77
2022-12-08T06:01:42.395Z,18.20
2022-12-08T06:04:16.041Z,19.30
2022-12-08T06:06:48.733Z,17.38
2022-12-08T06:09:25.173Z,17.13
2022-12-08T06:11:58.843Z,17.60
2022-12-08T06:14:50.119Z,17.48
2022-12-08T06:17:21.262Z,17.20
2022-12-08T06:19:58.119Z,16.83
2022-12-08T06:22:37.083Z,17.77
2022-12-08T06:25:10.140Z,17.80
2022-12-08T06:27:44.093Z,17.73
2022-12-08T06:30:25.374Z,18.10
2022-12-08T06:32:52.654Z,17.35
2022-12-08T06:35:30.788Z,17.38
2022-12-08T06:37:58.043Z,16.75
2022-12-08T06:40:33.931Z,16.90
2022-12-08T06:43:01.287Z,17.42
2022-12-08T06:45:38.263Z,16.67
2022-12-08T06:48:12.143Z,17.20
2022-12-08T06:50:51.135Z,16.55
2022-12-08T06:53:27.276Z,16.92
2022-12-08T06:56:03.211Z,18.63
2022-12-08T06:58:33.037Z,17.83
2022-12-08T07:01:15.241Z,18.75
2022-12-08T07:03:47.821Z,17.52
2022-12-08T07:06:23.214Z,16.73
2022-12-08T07:08:57.636Z,18.17
2022-12-08T07:11:35.250Z,16.67
2022-12-08T07:14:02.631Z,16.58
2022-12-08T07:16:40.917Z,16.75
2022-12-08T07:19:21.065Z,16.85
2022-12-08T07:21:55.275Z,17.52
2022-12-08T07:24:30.086Z,17.38
2022-12-08T07:27:04.236Z,17.65
2022-12-08T07:29:38.236Z,16.58
2022-12-08T07:32:07.415Z,17.08
2022-12-08T07:34:46.198Z,15.52
2022-12-08T07:37:16.602Z,14.57
2022-12-08T07:40:05.592Z,15.45
2022-12-08T07:42:36.030Z,15.15
2022-12-08T07:45:14.150Z,14.70
2022-12-08T07:47:41.258Z,14.77
2022-12-08T07:50:15.168Z,14.40
2022-12-08T07:52:44.624Z,14.45
2022-12-08T07:55:18.144Z,14.13
2022-12-08T07:57:48.438Z,14.63
2022-12-08T08:00:28.207Z,15.60
2022-12-08T08:03:02.196Z,14.18
2022-12-08T08:05:36.128Z,14.82
2022-12-08T08:08:13.305Z,14.30
2022-12-08T08:10:40.889Z,13.60
2022-12-08T08:13:16.152Z,14.65
2022-12-08T08:15:43.409Z,13.32
2022-12-08T08:18:17.267Z,13.93
2022-12-08T08:20:44.368Z,13.40
2022-12-08T08:23:18.183Z,13.27
2022-12-08T08:25:45.171Z,13.50
2022-12-08T08:28:19.161Z,19.65
2022-12-08T08:30:47.277Z,18.10
2022-12-08T08:33:21.051Z,16.60
2022-12-08T08:35:48.159Z,16.20
2022-12-08T08:38:22.142Z,16.45
2022-12-08T08:40:49.184Z,14.57
2022-12-08T08:43:16.297Z,22.80
2022-12-08T08:45:50.122Z,17.42
2022-12-08T08:48:17.176Z,15.88
2022-12-08T08:50:51.084Z,15.48
2022-12-08T08:53:20.553Z,14.98
2022-12-08T08:56:05.342Z,14.98
2022-12-08T08:58:44.145Z,15.65
2022-12-08T09:01:22.036Z,15.02
2022-12-08T09:04:00.324Z,15.05
2022-12-08T09:06:34.264Z,14.75
2022-12-08T09:09:01.594Z,16.08
2022-12-08T09:11:34.263Z,27.90
2022-12-08T09:14:13.455Z,18.55
2022-12-08T09:16:42.589Z,17.05
2022-12-08T09:19:19.257Z,15.10
2022-12-08T09:21:48.532Z,15.07
2022-12-08T09:24:26.153Z,14.43
2022-12-08T09:27:00.516Z,14.90
2022-12-08T09:29:34.039Z,14.60
2022-12-08T09:32:09.308Z,15.65
2022-12-08T09:34:37.347Z,16.40
2022-12-08T09:37:11.243Z,18.63
2022-12-08T09:39:38.492Z,17.73
2022-12-08T09:42:06.548Z,18.77
2022-12-08T09:44:54.303Z,18.30
2022-12-08T09:47:50.188Z,17.25
2022-12-08T09:50:50.129Z,15.73
2022-12-08T09:53:42.765Z,17.08
2022-12-08T09:56:21.455Z,18.73
2022-12-08T09:59:00.475Z,17.42
2022-12-08T10:01:44.374Z,19.00
2022-12-08T10:04:35.929Z,18.98
2022-12-08T10:07:16.406Z,17.42
2022-12-08T10:10:00.637Z,18.80
2022-12-08T10:13:01.459Z,19.65
2022-12-08T10:15:44.763Z,18.50
2022-12-08T10:18:29.224Z,16.30
2022-12-08T10:21:10.973Z,17.98
2022-12-08T10:23:46.218Z,17.00
2022-12-08T10:26:20.192Z,19.45
2022-12-08T10:28:54.117Z,17.90
2022-12-08T10:31:24.230Z,17.80
2022-12-08T10:34:07.170Z,20.67
2022-12-08T10:36:50.716Z,31.17
2022-12-08T10:39:47.304Z,24.77
2022-12-08T10:42:14.384Z,24.85
2022-12-08T10:45:18.429Z,20.13
2022-12-08T10:47:55.503Z,19.80
2022-12-08T10:50:48.303Z,19.02
2022-12-08T10:53:33.419Z,18.70
2022-12-08T10:56:10.277Z,18.38
2022-12-08T10:58:42.322Z,18.35
2022-12-08T11:01:22.230Z,18.23
2022-12-08T11:03:58.192Z,18.63
2022-12-08T11:06:43.129Z,18.00
2022-12-08T11:09:16.005Z,17.05
2022-12-08T11:12:01.162Z,16.98
2022-12-08T11:14:36.330Z,17.33
2022-12-08T11:17:06.824Z,17.10
2022-12-08T11:19:44.175Z,17.60
2022-12-08T11:22:42.042Z,15.70
2022-12-08T11:25:34.408Z,16.95
2022-12-08T11:28:08.144Z,15.32
2022-12-08T11:30:45.336Z,15.32
2022-12-08T11:33:26.321Z,15.13
2022-12-08T11:36:16.344Z,15.65
2022-12-08T11:38:46.555Z,16.33
2022-12-08T11:41:33.169Z,16.15
2022-12-08T11:44:59.171Z,15.85
2022-12-08T11:47:41.145Z,16.30
2022-12-08T11:50:25.324Z,16.67
2022-12-08T11:52:59.241Z,16.10
2022-12-08T11:55:49.782Z,16.95
2022-12-08T11:58:51.322Z,16.58
2022-12-08T12:01:23.864Z,15.65
2022-12-08T12:04:43.148Z,16.35
2022-12-08T12:07:33.786Z,16.92
2022-12-08T12:10:22.332Z,16.63
2022-12-08T12:12:59.259Z,16.55
2022-12-08T12:16:35.277Z,16.48
2022-12-08T12:19:11.116Z,15.50
2022-12-08T12:21:54.008Z,14.85
2022-12-08T12:24:38.218Z,14.93
2022-12-08T12:27:14.505Z,13.52
2022-12-08T12:30:08.480Z,12.65
2022-12-08T12:32:58.281Z,12.93
2022-12-08T12:35:44.387Z,13.40
2022-12-08T12:38:41.163Z,12.85
2022-12-08T12:41:08.157Z,12.77
2022-12-08T12:43:43.218Z,14.27
2022-12-08T12:46:46.205Z,14.27
2022-12-08T12:49:37.995Z,13.25
2022-12-08T12:52:24.205Z,13.57
2022-12-08T12:54:51.085Z,13.90
2022-12-08T12:57:28.206Z,14.30
2022-12-08T12:59:56.118Z,14.23
2022-12-08T13:02:33.278Z,12.98
2022-12-08T13:05:26.232Z,13.73
2022-12-08T13:08:04.258Z,14.00
2022-12-08T13:10:58.100Z,14.00
2022-12-08T13:13:31.203Z,14.05
2022-12-08T13:16:19.469Z,12.85
2022-12-08T13:18:51.081Z,13.18
2022-12-08T13:21:27.319Z,13.20
2022-12-08T13:24:24.791Z,14.18
2022-12-08T13:27:18.235Z,14.15
2022-12-08T13:29:45.197Z,13.10
2022-12-08T13:32:18.216Z,13.35
2022-12-08T13:35:05.380Z,13.65
2022-12-08T13:37:53.836Z,12.75
2022-12-08T13:40:33.251Z,11.95
2022-12-08T13:43:17.260Z,11.13
2022-12-08T13:46:57.540Z,10.80
2022-12-08T13:53:35.066Z,11.02
2022-12-08T13:57:39.265Z,11.13
2022-12-08T14:00:14.831Z,10.65
2022-12-08T14:02:53.465Z,10.27
2022-12-08T14:05:40.842Z,9.88
2022-12-08T14:09:01.203Z,10.02
2022-12-08T14:11:47.359Z,10.27
2022-12-08T14:14:53.776Z,10.27
2022-12-08T14:17:26.306Z,11.57
2022-12-08T14:20:14.290Z,12.10
2022-12-08T14:22:50.425Z,12.80
2022-12-08T14:25:19.612Z,11.30
2022-12-08T14:27:53.559Z,10.38
2022-12-08T14:30:40.009Z,11.23
2022-12-08T14:33:20.617Z,11.00
2022-12-08T14:35:55.615Z,11.35
2022-12-08T14:38:30.343Z,10.20
2022-12-08T14:41:08.623Z,10.40
2022-12-08T14:43:42.408Z,10.90
2022-12-08T14:46:29.400Z,10.52
2022-12-08T14:49:08.060Z,11.07
2022-12-08T14:51:49.846Z,11.10
2022-12-08T14:54:17.150Z,11.95
2022-12-08T14:57:01.496Z,11.82
2022-12-08T14:59:40.485Z,13.43
2022-12-08T15:02:18.397Z,13.32
2022-12-08T15:05:01.448Z,13.80
2022-12-08T15:07:42.877Z,13.40
2022-12-08T15:10:22.456Z,12.63
2022-12-08T15:13:04.431Z,13.85
2022-12-08T15:15:39.405Z,12.80
2022-12-08T15:18:19.541Z,14.35
2022-12-08T15:20:59.554Z,14.30
2022-12-08T15:23:28.013Z,14.52
2022-12-08T15:26:02.348Z,14.80
2022-12-08T15:28:36.360Z,14.65
2022-12-08T15:31:03.748Z,15.27
2022-12-08T15:33:37.286Z,15.50
2022-12-08T15:36:07.451Z,15.38
2022-12-08T15:38:41.411Z,16.27
2022-12-08T15:41:14.415Z,14.63
2022-12-08T15:43:49.806Z,15.75
2022-12-08T15:46:17.434Z,15.80
2022-12-08T15:48:55.052Z,16.60
2022-12-08T15:51:27.554Z,18.15
2022-12-08T15:54:01.519Z,18.42
2022-12-08T15:56:50.680Z,17.77
2022-12-08T15:59:28.111Z,17.02
2022-12-08T16:02:06.830Z,17.33
2022-12-08T16:07:34.990Z,18.15
2022-12-08T16:10:08.884Z,17.90
2022-12-08T16:15:51.771Z,17.98
2022-12-08T16:18:32.899Z,19.70
2022-12-08T16:21:22.816Z,18.73
2022-12-08T16:23:56.509Z,19.83
2022-12-08T16:27:57.911Z,19.40
2022-12-08T16:29:21.408Z,23.15
2022-12-08T16:31:56.529Z,23.05
2022-12-08T16:34:30.279Z,24.38
2022-12-08T16:36:57.367Z,26.67
2022-12-08T16:39:31.465Z,28.77
2022-12-08T16:42:01.164Z,32.72
2022-12-08T16:44:28.880Z,34.05
2022-12-08T16:47:03.742Z,33.75
2022-12-08T16:49:33.638Z,33.72
2022-12-08T16:52:07.522Z,34.65
2022-12-08T16:54:37.652Z,36.22
2022-12-08T16:57:11.438Z,47.63
2022-12-08T16:59:39.367Z,42.63
2022-12-08T17:02:06.578Z,44.05
2022-12-08T17:04:40.469Z,34.72
2022-12-08T17:07:17.526Z,30.35
2022-12-08T17:09:44.720Z,29.02
2022-12-08T17:12:18.409Z,26.85
2022-12-08T17:14:52.481Z,24.27
2022-12-08T17:17:26.490Z,24.35
2022-12-08T17:20:00.405Z,23.90
2022-12-08T17:22:37.551Z,29.08
2022-12-08T17:25:15.325Z,26.20
2022-12-08T17:27:53.793Z,26.10
2022-12-08T17:30:24.843Z,25.83
2022-12-08T17:33:03.700Z,27.63
2022-12-08T17:35:34.294Z,24.95
2022-12-08T17:38:13.945Z,25.60
2022-12-08T17:40:47.004Z,23.40
2022-12-08T17:43:25.592Z,22.60
2022-12-08T17:45:52.919Z,19.50
2022-12-08T17:48:36.330Z,17.73
2022-12-08T17:51:03.599Z,16.35
2022-12-08T17:53:39.581Z,15.77
2022-12-08T17:56:27.865Z,15.77
2022-12-08T17:58:58.135Z,15.55
2022-12-08T18:01:40.148Z,15.50
2022-12-08T18:04:09.096Z,14.15
2022-12-08T18:07:02.442Z,16.00
2022-12-08T18:09:34.431Z,15.02
2022-12-08T18:12:10.599Z,16.27
2022-12-08T18:14:41.073Z,15.90
2022-12-08T18:17:26.265Z,15.93
2022-12-08T18:20:27.119Z,17.40
2022-12-08T18:23:03.458Z,16.70
2022-12-08T18:25:32.555Z,16.42
2022-12-08T18:28:08.896Z,14.43
2022-12-08T18:30:36.949Z,14.88
2022-12-08T18:33:16.123Z,17.65
2022-12-08T18:35:43.566Z,17.10
2022-12-08T18:38:19.471Z,17.33
2022-12-08T18:40:54.696Z,19.05
2022-12-08T18:43:28.346Z,20.83
2022-12-08T18:46:05.880Z,22.75
2022-12-08T18:48:39.454Z,21.02
2022-12-08T18:51:17.782Z,20.23
2022-12-08T18:53:51.408Z,21.65
2022-12-08T18:56:26.326Z,20.75
2022-12-08T18:59:03.579Z,21.80
2022-12-08T19:01:32.919Z,22.90
2022-12-08T19:07:00.488Z,21.23
2022-12-08T19:09:27.726Z,20.88
2022-12-08T19:12:01.518Z,24.60
2022-12-08T19:14:28.892Z,24.80
2022-12-08T19:17:03.344Z,23.73
2022-12-08T19:19:30.450Z,23.02
2022-12-08T19:22:04.630Z,24.83
2022-12-08T19:24:31.715Z,24.50
2022-12-08T19:27:07.011Z,25.38
2022-12-08T19:29:34.421Z,24.27
2022-12-08T19:32:08.635Z,24.45
2022-12-08T19:34:42.842Z,27.95
2022-12-08T19:37:12.342Z,24.83
2022-12-08T19:39:39.905Z,26.13
2022-12-08T19:42:29.283Z,25.98
2022-12-08T19:44:58.482Z,24.95
2022-12-08T19:47:26.471Z,24.88
2022-12-08T19:50:07.807Z,24.48
2022-12-08T19:53:47.925Z,24.02
2022-12-08T20:00:55.576Z,60.17
2022-12-08T20:03:25.142Z,43.63
2022-12-08T20:05:56.520Z,32.05
2022-12-08T20:08:32.427Z,28.50
2022-12-08T20:10:59.843Z,28.67
2022-12-08T20:13:37.479Z,27.13
2022-12-08T20:16:06.177Z,26.52
2022-12-08T20:18:48.554Z,24.42
2022-12-08T20:21:24.931Z,25.48
2022-12-08T20:23:53.624Z,27.20
2022-12-08T20:26:30.506Z,29.20
2022-12-08T20:28:57.907Z,29.90
2022-12-08T20:31:45.698Z,31.10
2022-12-08T20:34:27.432Z,28.77
2022-12-08T20:37:11.626Z,29.52
2022-12-08T20:39:48.465Z,25.38
2022-12-08T20:42:18.848Z,24.75
2022-12-08T20:44:56.581Z,23.42
2022-12-08T20:47:23.764Z,23.52
2022-12-08T20:49:57.563Z,22.48
2022-12-08T20:52:28.052Z,23.70
2022-12-08T20:55:01.749Z,24.48
2022-12-08T20:57:29.012Z,25.65
2022-12-08T21:00:05.053Z,28.13
2022-12-08T21:03:13.922Z,32.10
2022-12-08T21:05:57.672Z,33.83
2022-12-08T21:08:27.378Z,35.22
2022-12-08T21:13:04.313Z,32.75
2022-12-08T21:15:41.461Z,33.17
2022-12-08T21:18:15.319Z,32.10
2022-12-08T21:20:43.088Z,32.38
2022-12-08T21:23:19.303Z,34.15
2022-12-08T21:25:49.681Z,34.03
2022-12-08T21:28:17.219Z,33.35
2022-12-08T21:30:53.369Z,34.22
2022-12-08T21:33:20.942Z,34.90
2022-12-08T21:35:53.189Z,33.03
2022-12-08T21:38:34.501Z,34.30
2022-12-08T21:41:23.339Z,32.03
2022-12-08T21:43:54.840Z,31.48
2022-12-08T21:46:28.611Z,32.05
2022-12-08T21:48:56.213Z,31.17
2022-12-08T21:51:32.234Z,34.33
2022-12-08T21:54:06.418Z,31.15
2022-12-08T21:56:35.835Z,31.75
2022-12-08T21:59:10.680Z,33.75
2022-12-08T22:01:47.456Z,32.75
2022-12-08T22:04:18.239Z,30.48
2022-12-08T22:06:45.689Z,31.52
2022-12-08T22:09:23.707Z,32.10
2022-12-08T22:11:51.145Z,31.45
2022-12-08T22:14:25.397Z,38.95
2022-12-08T22:16:59.328Z,41.50
2022-12-08T22:19:27.121Z,39.92
2022-12-08T22:22:03.455Z,40.25
2022-12-08T22:24:31.376Z,37.85
2022-12-08T22:27:05.569Z,42.03
2022-12-08T22:29:37.623Z,39.50
2022-12-08T22:32:12.436Z,39.50
2022-12-08T22:34:59.463Z,45.13
2022-12-08T22:37:28.043Z,39.88
2022-12-08T22:40:02.381Z,39.35
2022-12-08T22:42:37.466Z,35.17
2022-12-08T22:45:24.820Z,32.78
2022-12-08T22:47:58.310Z,34.13
2022-12-08T22:50:25.497Z,34.03
2022-12-08T22:53:01.415Z,33.03
2022-12-08T22:55:31.770Z,32.42
2022-12-08T22:57:59.005Z,28.45
2022-12-08T23:00:44.025Z,29.00
2022-12-08T23:03:14.476Z,28.25
2022-12-08T23:05:59.475Z,30.48
2022-12-08T23:08:33.728Z,30.52
2022-12-08T23:11:17.385Z,29.92
2022-12-08T23:13:52.665Z,31.67
2022-12-08T23:16:20.878Z,32.55
2022-12-08T23:18:55.454Z,34.67
2022-12-08T23:21:27.102Z,33.97
2022-12-08T23:25:05.674Z,34.85
2022-12-08T23:28:37.576Z,39.67
2022-12-08T23:31:21.528Z,41.03
2022-12-08T23:33:55.537Z,49.28
2022-12-08T23:36:23.101Z,50.20
2022-12-08T23:38:50.136Z,53.00
2022-12-08T23:41:23.561Z,47.33
2022-12-08T23:43:58.333Z,44.42
2022-12-08T23:46:25.712Z,38.05
2022-12-08T23:48:56.094Z,35.72
2022-12-08T23:51:29.495Z,33.72
2022-12-08T23:54:03.535Z,35.63
2022-12-08T23:56:33.765Z,33.72
2022-12-08T23:59:08.432Z,35.80
